sensor_id;sensor_type;location;lat;lon;timestamp;P1;durP1;ratioP1;P2;durP2;ratioP2
19187;SDS011;9726;52.198;8.792;2024-01-27T00:00:22;43.17;;;5.03;;
19187;SDS011;9726;52.198;8.792;2024-01-27T00:02:49;33.50;;;4.20;;
19187;SDS011;9726;52.198;8.792;2024-01-27T00:05:18;34.73;;;4.20;;
19187;SDS011;9726;52.198;8.792;2024-01-27T00:07:45;38.20;;;4.50;;
19187;SDS011;9726;52.198;8.792;2024-01-27T00:10:12;20.87;;;4.77;;
19187;SDS011;9726;52.198;8.792;2024-01-27T00:12:39;41.20;;;5.10;;
19187;SDS011;9726;52.198;8.792;2024-01-27T00:15:07;44.43;;;5.60;;
19187;SDS011;9726;52.198;8.792;2024-01-27T00:17:35;39.37;;;5.57;;
19187;SDS011;9726;52.198;8.792;2024-01-27T00:20:03;43.13;;;5.50;;
19187;SDS011;9726;52.198;8.792;2024-01-27T00:22:30;51.00;;;5.20;;
19187;SDS011;9726;52.198;8.792;2024-01-27T00:24:57;35.67;;;4.43;;
19187;SDS011;9726;52.198;8.792;2024-01-27T00:27:24;44.07;;;4.70;;
19187;SDS011;9726;52.198;8.792;2024-01-27T00:29:51;37.57;;;5.27;;
19187;SDS011;9726;52.198;8.792;2024-01-27T00:32:18;36.67;;;4.57;;
19187;SDS011;9726;52.198;8.792;2024-01-27T00:34:45;31.73;;;4.00;;
19187;SDS011;9726;52.198;8.792;2024-01-27T00:37:12;45.43;;;5.23;;
19187;SDS011;9726;52.198;8.792;2024-01-27T00:39:39;27.77;;;5.20;;
19187;SDS011;9726;52.198;8.792;2024-01-27T00:42:07;33.20;;;5.10;;
19187;SDS011;9726;52.198;8.792;2024-01-27T00:44:34;32.60;;;3.70;;
19187;SDS011;9726;52.198;8.792;2024-01-27T00:47:02;42.93;;;5.40;;
19187;SDS011;9726;52.198;8.792;2024-01-27T00:49:30;31.80;;;4.90;;
19187;SDS011;9726;52.198;8.792;2024-01-27T00:51:57;35.50;;;5.23;;
19187;SDS011;9726;52.198;8.792;2024-01-27T00:54:24;54.17;;;5.43;;
19187;SDS011;9726;52.198;8.792;2024-01-27T00:56:52;33.47;;;4.97;;
19187;SDS011;9726;52.198;8.792;2024-01-27T00:59:19;40.83;;;4.30;;
19187;SDS011;9726;52.198;8.792;2024-01-27T01:01:46;30.07;;;4.00;;
19187;SDS011;9726;52.198;8.792;2024-01-27T01:04:13;32.40;;;5.40;;
19187;SDS011;9726;52.198;8.792;2024-01-27T01:06:41;31.30;;;4.43;;
19187;SDS011;9726;52.198;8.792;2024-01-27T01:09:08;38.80;;;5.17;;
19187;SDS011;9726;52.198;8.792;2024-01-27T01:11:35;27.67;;;4.33;;
19187;SDS011;9726;52.198;8.792;2024-01-27T01:14:05;49.40;;;6.00;;
19187;SDS011;9726;52.198;8.792;2024-01-27T01:16:32;37.53;;;3.50;;
19187;SDS011;9726;52.198;8.792;2024-01-27T01:18:59;45.00;;;4.80;;
19187;SDS011;9726;52.198;8.792;2024-01-27T01:21:27;35.43;;;4.93;;
19187;SDS011;9726;52.198;8.792;2024-01-27T01:23:55;27.80;;;5.50;;
19187;SDS011;9726;52.198;8.792;2024-01-27T01:26:22;34.00;;;5.47;;
19187;SDS011;9726;52.198;8.792;2024-01-27T01:28:51;46.27;;;5.33;;
19187;SDS011;9726;52.198;8.792;2024-01-27T01:31:18;37.83;;;4.50;;
19187;SDS011;9726;52.198;8.792;2024-01-27T01:33:45;36.23;;;5.10;;
19187;SDS011;9726;52.198;8.792;2024-01-27T01:36:13;28.83;;;5.87;;
19187;SDS011;9726;52.198;8.792;2024-01-27T01:38:40;42.23;;;5.80;;
19187;SDS011;9726;52.198;8.792;2024-01-27T01:41:07;57.97;;;5.50;;
19187;SDS011;9726;52.198;8.792;2024-01-27T01:43:34;34.83;;;4.40;;
19187;SDS011;9726;52.198;8.792;2024-01-27T01:46:01;39.30;;;5.57;;
19187;SDS011;9726;52.198;8.792;2024-01-27T01:48:29;40.50;;;6.67;;
19187;SDS011;9726;52.198;8.792;2024-01-27T01:50:57;43.60;;;4.00;;
19187;SDS011;9726;52.198;8.792;2024-01-27T01:53:26;46.53;;;5.37;;
19187;SDS011;9726;52.198;8.792;2024-01-27T01:55:54;45.40;;;6.10;;
19187;SDS011;9726;52.198;8.792;2024-01-27T01:58:22;54.53;;;4.60;;
19187;SDS011;9726;52.198;8.792;2024-01-27T02:00:49;30.20;;;4.17;;
19187;SDS011;9726;52.198;8.792;2024-01-27T02:03:16;44.53;;;6.53;;
19187;SDS011;9726;52.198;8.792;2024-01-27T02:05:43;38.27;;;5.37;;
19187;SDS011;9726;52.198;8.792;2024-01-27T02:08:11;38.07;;;5.10;;
19187;SDS011;9726;52.198;8.792;2024-01-27T02:10:38;35.17;;;4.73;;
19187;SDS011;9726;52.198;8.792;2024-01-27T02:13:17;33.63;;;4.50;;
19187;SDS011;9726;52.198;8.792;2024-01-27T02:15:46;35.77;;;6.47;;
19187;SDS011;9726;52.198;8.792;2024-01-27T02:18:15;40.60;;;5.60;;
19187;SDS011;9726;52.198;8.792;2024-01-27T02:20:43;39.87;;;5.70;;
19187;SDS011;9726;52.198;8.792;2024-01-27T02:23:11;45.83;;;6.60;;
19187;SDS011;9726;52.198;8.792;2024-01-27T02:25:38;28.47;;;5.23;;
19187;SDS011;9726;52.198;8.792;2024-01-27T02:28:05;33.37;;;6.03;;
19187;SDS011;9726;52.198;8.792;2024-01-27T02:30:32;39.13;;;5.40;;
19187;SDS011;9726;52.198;8.792;2024-01-27T02:32:59;32.20;;;5.57;;
19187;SDS011;9726;52.198;8.792;2024-01-27T02:35:28;47.10;;;5.67;;
19187;SDS011;9726;52.198;8.792;2024-01-27T02:37:56;25.10;;;5.53;;
19187;SDS011;9726;52.198;8.792;2024-01-27T02:40:23;54.43;;;6.20;;
19187;SDS011;9726;52.198;8.792;2024-01-27T02:42:50;44.57;;;5.37;;
19187;SDS011;9726;52.198;8.792;2024-01-27T02:45:17;42.50;;;6.87;;
19187;SDS011;9726;52.198;8.792;2024-01-27T02:47:44;45.10;;;6.10;;
19187;SDS011;9726;52.198;8.792;2024-01-27T02:50:11;40.53;;;6.57;;
19187;SDS011;9726;52.198;8.792;2024-01-27T02:52:39;40.83;;;5.57;;
19187;SDS011;9726;52.198;8.792;2024-01-27T02:55:06;39.77;;;4.90;;
19187;SDS011;9726;52.198;8.792;2024-01-27T02:57:33;33.33;;;5.67;;
19187;SDS011;9726;52.198;8.792;2024-01-27T03:00:01;31.33;;;5.70;;
19187;SDS011;9726;52.198;8.792;2024-01-27T03:02:28;42.80;;;8.73;;
19187;SDS011;9726;52.198;8.792;2024-01-27T03:04:55;40.83;;;5.77;;
19187;SDS011;9726;52.198;8.792;2024-01-27T03:07:22;40.67;;;5.77;;
19187;SDS011;9726;52.198;8.792;2024-01-27T03:09:49;29.70;;;5.00;;
19187;SDS011;9726;52.198;8.792;2024-01-27T03:12:16;40.73;;;6.30;;
19187;SDS011;9726;52.198;8.792;2024-01-27T03:14:44;41.17;;;6.07;;
19187;SDS011;9726;52.198;8.792;2024-01-27T03:17:12;37.13;;;4.63;;
19187;SDS011;9726;52.198;8.792;2024-01-27T03:19:42;37.30;;;5.43;;
19187;SDS011;9726;52.198;8.792;2024-01-27T03:22:12;47.83;;;6.07;;
19187;SDS011;9726;52.198;8.792;2024-01-27T03:24:39;45.67;;;5.17;;
19187;SDS011;9726;52.198;8.792;2024-01-27T03:27:06;31.57;;;6.30;;
19187;SDS011;9726;52.198;8.792;2024-01-27T03:29:33;41.33;;;5.87;;
19187;SDS011;9726;52.198;8.792;2024-01-27T03:32:00;41.13;;;6.47;;
19187;SDS011;9726;52.198;8.792;2024-01-27T03:34:27;52.80;;;6.43;;
19187;SDS011;9726;52.198;8.792;2024-01-27T03:36:55;35.30;;;5.53;;
19187;SDS011;9726;52.198;8.792;2024-01-27T03:39:22;46.00;;;6.50;;
19187;SDS011;9726;52.198;8.792;2024-01-27T03:41:49;58.23;;;6.90;;
19187;SDS011;9726;52.198;8.792;2024-01-27T03:44:16;41.00;;;6.50;;
19187;SDS011;9726;52.198;8.792;2024-01-27T03:46:43;37.60;;;5.30;;
19187;SDS011;9726;52.198;8.792;2024-01-27T03:49:10;39.03;;;7.20;;
19187;SDS011;9726;52.198;8.792;2024-01-27T03:51:37;48.00;;;6.90;;
19187;SDS011;9726;52.198;8.792;2024-01-27T03:54:04;38.10;;;6.70;;
19187;SDS011;9726;52.198;8.792;2024-01-27T03:56:32;68.83;;;8.43;;
19187;SDS011;9726;52.198;8.792;2024-01-27T03:58:59;39.37;;;8.30;;
19187;SDS011;9726;52.198;8.792;2024-01-27T04:01:26;43.17;;;7.67;;
19187;SDS011;9726;52.198;8.792;2024-01-27T04:03:53;50.50;;;8.23;;
19187;SDS011;9726;52.198;8.792;2024-01-27T04:06:20;33.60;;;7.97;;
19187;SDS011;9726;52.198;8.792;2024-01-27T04:08:47;38.13;;;7.83;;
19187;SDS011;9726;52.198;8.792;2024-01-27T04:11:20;46.60;;;9.50;;
19187;SDS011;9726;52.198;8.792;2024-01-27T04:13:49;52.50;;;9.30;;
19187;SDS011;9726;52.198;8.792;2024-01-27T04:16:19;36.43;;;8.53;;
19187;SDS011;9726;52.198;8.792;2024-01-27T04:18:46;36.50;;;8.63;;
19187;SDS011;9726;52.198;8.792;2024-01-27T04:21:14;48.53;;;9.27;;
19187;SDS011;9726;52.198;8.792;2024-01-27T04:23:41;41.03;;;8.80;;
19187;SDS011;9726;52.198;8.792;2024-01-27T04:26:08;38.03;;;8.20;;
19187;SDS011;9726;52.198;8.792;2024-01-27T04:28:37;38.07;;;8.07;;
19187;SDS011;9726;52.198;8.792;2024-01-27T04:31:04;42.97;;;8.43;;
19187;SDS011;9726;52.198;8.792;2024-01-27T04:33:31;32.57;;;7.90;;
19187;SDS011;9726;52.198;8.792;2024-01-27T04:35:59;35.60;;;7.83;;
19187;SDS011;9726;52.198;8.792;2024-01-27T04:38:27;30.60;;;7.90;;
19187;SDS011;9726;52.198;8.792;2024-01-27T04:40:54;40.83;;;9.17;;
19187;SDS011;9726;52.198;8.792;2024-01-27T04:43:21;39.27;;;8.60;;
19187;SDS011;9726;52.198;8.792;2024-01-27T04:45:48;47.77;;;8.63;;
19187;SDS011;9726;52.198;8.792;2024-01-27T04:48:16;38.37;;;8.80;;
19187;SDS011;9726;52.198;8.792;2024-01-27T04:50:43;41.90;;;9.43;;
19187;SDS011;9726;52.198;8.792;2024-01-27T04:53:10;49.80;;;8.90;;
19187;SDS011;9726;52.198;8.792;2024-01-27T04:55:37;40.73;;;9.97;;
19187;SDS011;9726;52.198;8.792;2024-01-27T04:58:04;43.03;;;8.37;;
19187;SDS011;9726;52.198;8.792;2024-01-27T05:00:33;52.20;;;9.43;;
19187;SDS011;9726;52.198;8.792;2024-01-27T05:03:01;50.03;;;9.10;;
19187;SDS011;9726;52.198;8.792;2024-01-27T05:05:30;46.07;;;7.67;;
19187;SDS011;9726;52.198;8.792;2024-01-27T05:08:02;48.03;;;8.60;;
19187;SDS011;9726;52.198;8.792;2024-01-27T05:10:30;41.63;;;8.93;;
19187;SDS011;9726;52.198;8.792;2024-01-27T05:12:57;38.87;;;8.53;;
19187;SDS011;9726;52.198;8.792;2024-01-27T05:15:26;41.20;;;8.93;;
19187;SDS011;9726;52.198;8.792;2024-01-27T05:17:53;55.00;;;9.50;;
19187;SDS011;9726;52.198;8.792;2024-01-27T05:20:20;54.47;;;10.67;;
19187;SDS011;9726;52.198;8.792;2024-01-27T05:22:47;37.20;;;7.67;;
19187;SDS011;9726;52.198;8.792;2024-01-27T05:25:14;34.53;;;8.00;;
19187;SDS011;9726;52.198;8.792;2024-01-27T05:27:43;33.23;;;7.37;;
19187;SDS011;9726;52.198;8.792;2024-01-27T05:30:10;46.40;;;9.43;;
19187;SDS011;9726;52.198;8.792;2024-01-27T05:32:40;35.27;;;9.13;;
19187;SDS011;9726;52.198;8.792;2024-01-27T05:35:09;59.43;;;10.17;;
19187;SDS011;9726;52.198;8.792;2024-01-27T05:37:37;44.87;;;9.27;;
19187;SDS011;9726;52.198;8.792;2024-01-27T05:40:06;38.40;;;9.90;;
19187;SDS011;9726;52.198;8.792;2024-01-27T05:42:34;35.27;;;10.30;;
19187;SDS011;9726;52.198;8.792;2024-01-27T05:45:02;44.80;;;9.50;;
19187;SDS011;9726;52.198;8.792;2024-01-27T05:47:29;52.20;;;11.47;;
19187;SDS011;9726;52.198;8.792;2024-01-27T05:49:56;57.73;;;11.63;;
19187;SDS011;9726;52.198;8.792;2024-01-27T05:59:55;40.50;;;9.63;;
19187;SDS011;9726;52.198;8.792;2024-01-27T06:02:22;53.08;;;12.90;;
19187;SDS011;9726;52.198;8.792;2024-01-27T06:04:53;42.97;;;11.13;;
19187;SDS011;9726;52.198;8.792;2024-01-27T06:07:20;46.53;;;12.67;;
19187;SDS011;9726;52.198;8.792;2024-01-27T06:09:48;41.27;;;12.47;;
19187;SDS011;9726;52.198;8.792;2024-01-27T06:12:15;33.73;;;10.03;;
19187;SDS011;9726;52.198;8.792;2024-01-27T06:14:42;58.30;;;11.67;;
19187;SDS011;9726;52.198;8.792;2024-01-27T06:17:09;56.17;;;11.57;;
19187;SDS011;9726;52.198;8.792;2024-01-27T06:19:37;49.70;;;12.77;;
19187;SDS011;9726;52.198;8.792;2024-01-27T06:22:04;45.90;;;11.47;;
19187;SDS011;9726;52.198;8.792;2024-01-27T06:24:32;51.23;;;13.03;;
19187;SDS011;9726;52.198;8.792;2024-01-27T06:26:59;57.85;;;17.38;;
19187;SDS011;9726;52.198;8.792;2024-01-27T06:29:26;64.40;;;15.30;;
19187;SDS011;9726;52.198;8.792;2024-01-27T06:31:53;47.83;;;12.60;;
19187;SDS011;9726;52.198;8.792;2024-01-27T06:34:20;52.67;;;13.10;;
19187;SDS011;9726;52.198;8.792;2024-01-27T06:36:48;54.87;;;14.37;;
19187;SDS011;9726;52.198;8.792;2024-01-27T06:39:15;49.03;;;15.00;;
19187;SDS011;9726;52.198;8.792;2024-01-27T06:41:42;50.83;;;13.97;;
19187;SDS011;9726;52.198;8.792;2024-01-27T06:44:09;50.50;;;14.37;;
19187;SDS011;9726;52.198;8.792;2024-01-27T06:46:36;46.00;;;13.43;;
19187;SDS011;9726;52.198;8.792;2024-01-27T06:49:03;57.80;;;16.33;;
19187;SDS011;9726;52.198;8.792;2024-01-27T06:51:30;45.60;;;14.00;;
19187;SDS011;9726;52.198;8.792;2024-01-27T06:53:58;33.70;;;14.37;;
19187;SDS011;9726;52.198;8.792;2024-01-27T06:56:25;55.97;;;15.37;;
19187;SDS011;9726;52.198;8.792;2024-01-27T06:58:52;40.23;;;14.77;;
19187;SDS011;9726;52.198;8.792;2024-01-27T07:01:19;56.90;;;14.43;;
19187;SDS011;9726;52.198;8.792;2024-01-27T07:03:46;54.67;;;15.03;;
19187;SDS011;9726;52.198;8.792;2024-01-27T07:06:25;50.00;;;18.83;;
19187;SDS011;9726;52.198;8.792;2024-01-27T07:09:05;48.00;;;14.97;;
19187;SDS011;9726;52.198;8.792;2024-01-27T07:11:33;53.77;;;17.43;;
19187;SDS011;9726;52.198;8.792;2024-01-27T07:14:08;50.13;;;15.90;;
19187;SDS011;9726;52.198;8.792;2024-01-27T07:16:35;44.20;;;15.23;;
19187;SDS011;9726;52.198;8.792;2024-01-27T07:19:02;54.80;;;17.63;;
19187;SDS011;9726;52.198;8.792;2024-01-27T07:21:29;52.13;;;17.90;;
19187;SDS011;9726;52.198;8.792;2024-01-27T07:23:58;56.87;;;17.10;;
19187;SDS011;9726;52.198;8.792;2024-01-27T07:26:25;59.43;;;18.10;;
19187;SDS011;9726;52.198;8.792;2024-01-27T07:28:52;53.90;;;18.63;;
19187;SDS011;9726;52.198;8.792;2024-01-27T07:31:19;38.73;;;16.63;;
19187;SDS011;9726;52.198;8.792;2024-01-27T07:33:46;54.17;;;20.17;;
19187;SDS011;9726;52.198;8.792;2024-01-27T07:36:13;55.27;;;19.23;;
19187;SDS011;9726;52.198;8.792;2024-01-27T07:38:40;66.97;;;20.10;;
19187;SDS011;9726;52.198;8.792;2024-01-27T07:41:07;59.60;;;20.63;;
19187;SDS011;9726;52.198;8.792;2024-01-27T07:43:34;57.37;;;23.10;;
19187;SDS011;9726;52.198;8.792;2024-01-27T07:46:01;57.23;;;20.70;;
19187;SDS011;9726;52.198;8.792;2024-01-27T07:48:28;64.30;;;20.97;;
19187;SDS011;9726;52.198;8.792;2024-01-27T07:50:56;66.33;;;21.73;;
19187;SDS011;9726;52.198;8.792;2024-01-27T07:53:24;50.07;;;20.27;;
19187;SDS011;9726;52.198;8.792;2024-01-27T07:55:51;74.67;;;21.00;;
19187;SDS011;9726;52.198;8.792;2024-01-27T07:58:20;67.17;;;21.03;;
19187;SDS011;9726;52.198;8.792;2024-01-27T08:00:47;53.57;;;20.27;;
19187;SDS011;9726;52.198;8.792;2024-01-27T08:03:14;52.10;;;18.97;;
19187;SDS011;9726;52.198;8.792;2024-01-27T08:05:42;60.53;;;20.70;;
19187;SDS011;9726;52.198;8.792;2024-01-27T08:08:10;45.13;;;19.97;;
19187;SDS011;9726;52.198;8.792;2024-01-27T08:10:38;54.90;;;20.43;;
19187;SDS011;9726;52.198;8.792;2024-01-27T08:13:05;55.43;;;22.37;;
19187;SDS011;9726;52.198;8.792;2024-01-27T08:15:33;60.13;;;21.20;;
19187;SDS011;9726;52.198;8.792;2024-01-27T08:18:01;54.90;;;20.60;;
19187;SDS011;9726;52.198;8.792;2024-01-27T08:20:35;53.13;;;18.93;;
19187;SDS011;9726;52.198;8.792;2024-01-27T08:23:08;57.87;;;19.90;;
19187;SDS011;9726;52.198;8.792;2024-01-27T08:25:35;72.60;;;19.33;;
19187;SDS011;9726;52.198;8.792;2024-01-27T08:28:03;64.90;;;20.57;;
19187;SDS011;9726;52.198;8.792;2024-01-27T08:30:30;45.38;;;19.02;;
19187;SDS011;9726;52.198;8.792;2024-01-27T08:32:57;66.87;;;20.47;;
19187;SDS011;9726;52.198;8.792;2024-01-27T08:35:25;50.90;;;18.83;;
19187;SDS011;9726;52.198;8.792;2024-01-27T08:37:52;42.17;;;19.63;;
19187;SDS011;9726;52.198;8.792;2024-01-27T08:40:19;69.27;;;19.30;;
19187;SDS011;9726;52.198;8.792;2024-01-27T08:42:46;50.83;;;18.73;;
19187;SDS011;9726;52.198;8.792;2024-01-27T08:45:13;57.77;;;20.17;;
19187;SDS011;9726;52.198;8.792;2024-01-27T08:47:41;50.23;;;15.67;;
19187;SDS011;9726;52.198;8.792;2024-01-27T08:50:09;47.50;;;17.23;;
19187;SDS011;9726;52.198;8.792;2024-01-27T08:52:37;50.33;;;17.57;;
19187;SDS011;9726;52.198;8.792;2024-01-27T08:55:05;52.93;;;17.00;;
19187;SDS011;9726;52.198;8.792;2024-01-27T08:57:33;58.03;;;17.20;;
19187;SDS011;9726;52.198;8.792;2024-01-27T09:00:00;48.67;;;18.23;;
19187;SDS011;9726;52.198;8.792;2024-01-27T09:02:28;51.83;;;18.83;;
19187;SDS011;9726;52.198;8.792;2024-01-27T09:04:55;44.07;;;17.50;;
19187;SDS011;9726;52.198;8.792;2024-01-27T09:07:23;47.17;;;16.80;;
19187;SDS011;9726;52.198;8.792;2024-01-27T09:09:51;65.23;;;21.10;;
19187;SDS011;9726;52.198;8.792;2024-01-27T09:12:18;46.57;;;18.57;;
19187;SDS011;9726;52.198;8.792;2024-01-27T09:14:45;47.87;;;16.23;;
19187;SDS011;9726;52.198;8.792;2024-01-27T09:17:12;63.73;;;18.07;;
19187;SDS011;9726;52.198;8.792;2024-01-27T09:19:39;52.23;;;18.60;;
19187;SDS011;9726;52.198;8.792;2024-01-27T09:22:06;50.10;;;16.37;;
19187;SDS011;9726;52.198;8.792;2024-01-27T09:24:33;49.17;;;16.60;;
19187;SDS011;9726;52.198;8.792;2024-01-27T09:27:00;53.30;;;17.07;;
19187;SDS011;9726;52.198;8.792;2024-01-27T09:29:28;44.90;;;16.23;;
19187;SDS011;9726;52.198;8.792;2024-01-27T09:31:56;47.47;;;16.80;;
19187;SDS011;9726;52.198;8.792;2024-01-27T09:34:23;43.80;;;15.67;;
19187;SDS011;9726;52.198;8.792;2024-01-27T09:36:51;38.73;;;14.00;;
19187;SDS011;9726;52.198;8.792;2024-01-27T09:39:18;41.57;;;14.40;;
19187;SDS011;9726;52.198;8.792;2024-01-27T09:41:45;34.83;;;13.37;;
19187;SDS011;9726;52.198;8.792;2024-01-27T09:44:15;36.00;;;13.83;;
19187;SDS011;9726;52.198;8.792;2024-01-27T09:46:45;47.03;;;13.20;;
19187;SDS011;9726;52.198;8.792;2024-01-27T09:49:14;43.23;;;14.07;;
19187;SDS011;9726;52.198;8.792;2024-01-27T09:51:42;49.73;;;14.00;;
19187;SDS011;9726;52.198;8.792;2024-01-27T09:54:09;39.93;;;12.60;;
19187;SDS011;9726;52.198;8.792;2024-01-27T09:56:36;38.43;;;14.07;;
19187;SDS011;9726;52.198;8.792;2024-01-27T09:59:05;50.67;;;14.87;;
19187;SDS011;9726;52.198;8.792;2024-01-27T10:01:32;28.67;;;13.17;;
19187;SDS011;9726;52.198;8.792;2024-01-27T10:04:01;43.03;;;14.10;;
19187;SDS011;9726;52.198;8.792;2024-01-27T10:06:29;33.87;;;14.20;;
19187;SDS011;9726;52.198;8.792;2024-01-27T10:08:56;40.37;;;12.37;;
19187;SDS011;9726;52.198;8.792;2024-01-27T10:11:24;37.63;;;11.60;;
19187;SDS011;9726;52.198;8.792;2024-01-27T10:13:56;46.30;;;12.23;;
19187;SDS011;9726;52.198;8.792;2024-01-27T10:16:26;38.73;;;13.03;;
19187;SDS011;9726;52.198;8.792;2024-01-27T10:19:02;40.47;;;11.97;;
19187;SDS011;9726;52.198;8.792;2024-01-27T10:21:30;35.70;;;11.23;;
19187;SDS011;9726;52.198;8.792;2024-01-27T10:23:57;65.47;;;15.50;;
19187;SDS011;9726;52.198;8.792;2024-01-27T10:26:26;38.93;;;12.07;;
19187;SDS011;9726;52.198;8.792;2024-01-27T10:28:56;31.60;;;10.63;;
19187;SDS011;9726;52.198;8.792;2024-01-27T10:31:42;41.93;;;11.57;;
19187;SDS011;9726;52.198;8.792;2024-01-27T10:34:09;37.70;;;10.27;;
19187;SDS011;9726;52.198;8.792;2024-01-27T10:36:42;42.03;;;12.50;;
19187;SDS011;9726;52.198;8.792;2024-01-27T10:39:18;49.30;;;14.27;;
19187;SDS011;9726;52.198;8.792;2024-01-27T10:41:50;55.17;;;16.83;;
19187;SDS011;9726;52.198;8.792;2024-01-27T10:44:18;34.27;;;13.53;;
19187;SDS011;9726;52.198;8.792;2024-01-27T10:46:47;44.17;;;11.90;;
19187;SDS011;9726;52.198;8.792;2024-01-27T10:49:16;41.57;;;13.07;;
19187;SDS011;9726;52.198;8.792;2024-01-27T10:51:53;66.40;;;18.57;;
19187;SDS011;9726;52.198;8.792;2024-01-27T10:54:25;65.03;;;15.07;;
19187;SDS011;9726;52.198;8.792;2024-01-27T10:56:57;39.20;;;13.13;;
19187;SDS011;9726;52.198;8.792;2024-01-27T10:59:26;36.53;;;11.80;;
19187;SDS011;9726;52.198;8.792;2024-01-27T11:01:54;40.60;;;10.63;;
19187;SDS011;9726;52.198;8.792;2024-01-27T11:04:23;32.07;;;11.23;;
19187;SDS011;9726;52.198;8.792;2024-01-27T11:06:52;35.37;;;11.30;;
19187;SDS011;9726;52.198;8.792;2024-01-27T11:09:21;39.10;;;12.97;;
19187;SDS011;9726;52.198;8.792;2024-01-27T11:11:49;30.63;;;8.10;;
19187;SDS011;9726;52.198;8.792;2024-01-27T11:14:17;26.67;;;8.27;;
19187;SDS011;9726;52.198;8.792;2024-01-27T11:16:44;39.57;;;11.13;;
19187;SDS011;9726;52.198;8.792;2024-01-27T11:19:16;28.90;;;9.37;;
19187;SDS011;9726;52.198;8.792;2024-01-27T11:21:44;30.93;;;8.63;;
19187;SDS011;9726;52.198;8.792;2024-01-27T11:24:14;39.40;;;11.23;;
19187;SDS011;9726;52.198;8.792;2024-01-27T11:26:42;30.73;;;10.77;;
19187;SDS011;9726;52.198;8.792;2024-01-27T11:29:11;36.77;;;8.03;;
19187;SDS011;9726;52.198;8.792;2024-01-27T11:31:47;35.87;;;8.83;;
19187;SDS011;9726;52.198;8.792;2024-01-27T11:34:15;28.40;;;10.10;;
19187;SDS011;9726;52.198;8.792;2024-01-27T11:36:46;34.20;;;9.57;;
19187;SDS011;9726;52.198;8.792;2024-01-27T11:39:26;32.93;;;7.17;;
19187;SDS011;9726;52.198;8.792;2024-01-27T11:42:04;34.77;;;9.60;;
19187;SDS011;9726;52.198;8.792;2024-01-27T11:44:35;27.40;;;7.47;;
19187;SDS011;9726;52.198;8.792;2024-01-27T11:47:03;32.67;;;6.63;;
19187;SDS011;9726;52.198;8.792;2024-01-27T11:49:31;38.87;;;7.93;;
19187;SDS011;9726;52.198;8.792;2024-01-27T11:52:00;33.97;;;6.63;;
19187;SDS011;9726;52.198;8.792;2024-01-27T11:54:27;29.93;;;7.33;;
19187;SDS011;9726;52.198;8.792;2024-01-27T11:56:54;33.20;;;7.33;;
19187;SDS011;9726;52.198;8.792;2024-01-27T11:59:21;24.90;;;8.10;;
19187;SDS011;9726;52.198;8.792;2024-01-27T12:01:49;44.80;;;11.53;;
19187;SDS011;9726;52.198;8.792;2024-01-27T12:04:17;28.93;;;7.47;;
19187;SDS011;9726;52.198;8.792;2024-01-27T12:06:44;41.83;;;8.80;;
19187;SDS011;9726;52.198;8.792;2024-01-27T12:09:12;38.47;;;7.97;;
19187;SDS011;9726;52.198;8.792;2024-01-27T12:11:39;23.47;;;7.07;;
19187;SDS011;9726;52.198;8.792;2024-01-27T12:14:09;21.40;;;7.43;;
19187;SDS011;9726;52.198;8.792;2024-01-27T12:16:36;36.33;;;7.83;;
19187;SDS011;9726;52.198;8.792;2024-01-27T12:19:04;25.33;;;7.53;;
19187;SDS011;9726;52.198;8.792;2024-01-27T12:21:31;31.23;;;7.77;;
19187;SDS011;9726;52.198;8.792;2024-01-27T12:23:58;31.33;;;8.37;;
19187;SDS011;9726;52.198;8.792;2024-01-27T12:26:28;33.13;;;7.23;;
19187;SDS011;9726;52.198;8.792;2024-01-27T12:28:56;25.37;;;6.27;;
19187;SDS011;9726;52.198;8.792;2024-01-27T12:31:24;22.33;;;7.40;;
19187;SDS011;9726;52.198;8.792;2024-01-27T12:33:56;23.20;;;5.97;;
19187;SDS011;9726;52.198;8.792;2024-01-27T12:36:26;29.43;;;6.50;;
19187;SDS011;9726;52.198;8.792;2024-01-27T12:38:56;22.13;;;7.30;;
19187;SDS011;9726;52.198;8.792;2024-01-27T12:41:28;22.07;;;6.03;;
19187;SDS011;9726;52.198;8.792;2024-01-27T12:43:56;29.47;;;6.13;;
19187;SDS011;9726;52.198;8.792;2024-01-27T12:46:24;32.57;;;6.53;;
19187;SDS011;9726;52.198;8.792;2024-01-27T12:48:52;34.20;;;6.90;;
19187;SDS011;9726;52.198;8.792;2024-01-27T12:51:19;22.27;;;6.53;;
19187;SDS011;9726;52.198;8.792;2024-01-27T12:53:47;19.33;;;7.33;;
19187;SDS011;9726;52.198;8.792;2024-01-27T12:56:14;25.87;;;5.30;;
19187;SDS011;9726;52.198;8.792;2024-01-27T12:58:42;25.53;;;5.30;;
19187;SDS011;9726;52.198;8.792;2024-01-27T13:01:09;32.33;;;6.40;;
19187;SDS011;9726;52.198;8.792;2024-01-27T13:03:36;22.03;;;5.03;;
19187;SDS011;9726;52.198;8.792;2024-01-27T13:06:07;29.33;;;6.23;;
19187;SDS011;9726;52.198;8.792;2024-01-27T13:08:34;20.47;;;5.47;;
19187;SDS011;9726;52.198;8.792;2024-01-27T13:11:02;24.03;;;5.20;;
19187;SDS011;9726;52.198;8.792;2024-01-27T13:13:29;20.73;;;5.20;;
19187;SDS011;9726;52.198;8.792;2024-01-27T13:15:56;25.93;;;4.17;;
19187;SDS011;9726;52.198;8.792;2024-01-27T13:18:23;29.57;;;5.07;;
19187;SDS011;9726;52.198;8.792;2024-01-27T13:20:50;23.23;;;5.00;;
19187;SDS011;9726;52.198;8.792;2024-01-27T13:23:17;24.77;;;4.87;;
19187;SDS011;9726;52.198;8.792;2024-01-27T13:25:44;25.47;;;5.67;;
19187;SDS011;9726;52.198;8.792;2024-01-27T13:28:32;20.50;;;4.57;;
19187;SDS011;9726;52.198;8.792;2024-01-27T13:31:00;25.30;;;5.40;;
19187;SDS011;9726;52.198;8.792;2024-01-27T13:33:27;13.30;;;4.63;;
19187;SDS011;9726;52.198;8.792;2024-01-27T13:35:56;18.87;;;3.97;;
19187;SDS011;9726;52.198;8.792;2024-01-27T13:38:23;18.27;;;4.17;;
19187;SDS011;9726;52.198;8.792;2024-01-27T13:40:51;28.17;;;5.07;;
19187;SDS011;9726;52.198;8.792;2024-01-27T13:43:18;20.43;;;4.83;;
19187;SDS011;9726;52.198;8.792;2024-01-27T13:45:45;19.83;;;4.73;;
19187;SDS011;9726;52.198;8.792;2024-01-27T13:48:14;26.30;;;4.50;;
19187;SDS011;9726;52.198;8.792;2024-01-27T13:50:42;38.73;;;5.17;;
19187;SDS011;9726;52.198;8.792;2024-01-27T13:53:09;21.23;;;4.93;;
19187;SDS011;9726;52.198;8.792;2024-01-27T13:55:36;42.00;;;9.23;;
19187;SDS011;9726;52.198;8.792;2024-01-27T13:58:04;18.20;;;4.13;;
19187;SDS011;9726;52.198;8.792;2024-01-27T14:00:32;18.57;;;5.83;;
19187;SDS011;9726;52.198;8.792;2024-01-27T14:03:01;24.57;;;4.70;;
19187;SDS011;9726;52.198;8.792;2024-01-27T14:05:29;26.23;;;4.93;;
19187;SDS011;9726;52.198;8.792;2024-01-27T14:07:56;29.40;;;5.43;;
19187;SDS011;9726;52.198;8.792;2024-01-27T14:10:23;23.80;;;5.40;;
19187;SDS011;9726;52.198;8.792;2024-01-27T14:12:51;24.20;;;5.50;;
19187;SDS011;9726;52.198;8.792;2024-01-27T14:15:18;36.70;;;6.50;;
19187;SDS011;9726;52.198;8.792;2024-01-27T14:17:47;42.93;;;6.43;;
19187;SDS011;9726;52.198;8.792;2024-01-27T14:20:15;19.63;;;6.63;;
19187;SDS011;9726;52.198;8.792;2024-01-27T14:22:43;25.30;;;4.93;;
19187;SDS011;9726;52.198;8.792;2024-01-27T14:25:10;23.03;;;5.80;;
19187;SDS011;9726;52.198;8.792;2024-01-27T14:27:38;16.27;;;4.13;;
19187;SDS011;9726;52.198;8.792;2024-01-27T14:30:06;24.60;;;6.07;;
19187;SDS011;9726;52.198;8.792;2024-01-27T14:32:33;18.00;;;4.23;;
19187;SDS011;9726;52.198;8.792;2024-01-27T14:35:01;20.40;;;4.33;;
19187;SDS011;9726;52.198;8.792;2024-01-27T14:37:32;30.30;;;5.40;;
19187;SDS011;9726;52.198;8.792;2024-01-27T14:40:00;32.63;;;5.37;;
19187;SDS011;9726;52.198;8.792;2024-01-27T14:42:27;25.40;;;6.90;;
19187;SDS011;9726;52.198;8.792;2024-01-27T14:44:57;28.47;;;5.57;;
19187;SDS011;9726;52.198;8.792;2024-01-27T14:47:25;20.63;;;4.37;;
19187;SDS011;9726;52.198;8.792;2024-01-27T14:49:52;31.07;;;6.07;;
19187;SDS011;9726;52.198;8.792;2024-01-27T14:52:20;38.57;;;5.87;;
19187;SDS011;9726;52.198;8.792;2024-01-27T14:54:48;23.13;;;5.93;;